Point O Woods, New York
Current Conditions -  °F | °C
As of 6:53 PM on Sunday 25 Jan 2015 (Local Time) from KFRG Reporting Station
Clear Clear  
Wind Chill: 27°   Ceiling: Unl
Heat Index: 35°   Visibility: 10mi
Dew Point:   Wind: 10mph
Humidity: 34%   Direction: 330°NNW
Pressure: 29.9"   Gusts: NA
Location:  40.7379°N, 73.2632°W
Report Text: KFRG 252353Z 33009KT 10SM CLR 02/M13 A2990 RMK AO2 SLP126 T00171128 10061 20017 52033
Loading
Personal Weather Stations






























Interactive Weather Map New forecast layout! Learn more

10-Day Weather Forecast

Advertisements
Track Severe Weather on mobile